sensor_id;sensor_type;location;lat;lon;timestamp;P1;durP1;ratioP1;P2;durP2;ratioP2
21987;SDS011;11158;53.404;-1.510;2023-10-13T00:00:01;9.43;;;7.00;;
21987;SDS011;11158;53.404;-1.510;2023-10-13T00:03:06;9.95;;;6.82;;
21987;SDS011;11158;53.404;-1.510;2023-10-13T00:05:58;8.00;;;6.95;;
21987;SDS011;11158;53.404;-1.510;2023-10-13T00:08:50;7.57;;;6.63;;
21987;SDS011;11158;53.404;-1.510;2023-10-13T00:11:34;9.50;;;6.80;;
21987;SDS011;11158;53.404;-1.510;2023-10-13T00:14:18;7.85;;;6.45;;
21987;SDS011;11158;53.404;-1.510;2023-10-13T00:17:03;8.77;;;6.68;;
21987;SDS011;11158;53.404;-1.510;2023-10-13T00:19:47;17.77;;;11.50;;
21987;SDS011;11158;53.404;-1.510;2023-10-13T00:22:35;17.88;;;12.38;;
21987;SDS011;11158;53.404;-1.510;2023-10-13T00:25:23;16.42;;;12.95;;
21987;SDS011;11158;53.404;-1.510;2023-10-13T00:28:10;21.20;;;13.70;;
21987;SDS011;11158;53.404;-1.510;2023-10-13T00:30:55;20.50;;;14.15;;
21987;SDS011;11158;53.404;-1.510;2023-10-13T00:33:49;20.42;;;14.43;;
21987;SDS011;11158;53.404;-1.510;2023-10-13T00:36:40;21.80;;;14.40;;
21987;SDS011;11158;53.404;-1.510;2023-10-13T00:39:50;13.40;;;10.00;;
21987;SDS011;11158;53.404;-1.510;2023-10-13T00:42:40;12.77;;;10.77;;
21987;SDS011;11158;53.404;-1.510;2023-10-13T00:45:36;6.80;;;5.10;;
21987;SDS011;11158;53.404;-1.510;2023-10-13T00:48:21;9.07;;;7.30;;
21987;SDS011;11158;53.404;-1.510;2023-10-13T00:51:12;6.82;;;6.00;;
21987;SDS011;11158;53.404;-1.510;2023-10-13T00:54:15;10.18;;;7.15;;
21987;SDS011;11158;53.404;-1.510;2023-10-13T00:57:02;6.28;;;4.75;;
21987;SDS011;11158;53.404;-1.510;2023-10-13T01:00:10;6.30;;;5.60;;
21987;SDS011;11158;53.404;-1.510;2023-10-13T01:03:08;5.40;;;4.25;;
21987;SDS011;11158;53.404;-1.510;2023-10-13T01:05:53;6.43;;;4.57;;
21987;SDS011;11158;53.404;-1.510;2023-10-13T01:08:44;3.17;;;2.88;;
21987;SDS011;11158;53.404;-1.510;2023-10-13T01:11:31;2.83;;;2.53;;
21987;SDS011;11158;53.404;-1.510;2023-10-13T01:14:15;3.42;;;2.58;;
21987;SDS011;11158;53.404;-1.510;2023-10-13T01:17:01;3.10;;;2.38;;
21987;SDS011;11158;53.404;-1.510;2023-10-13T01:19:45;5.22;;;2.95;;
21987;SDS011;11158;53.404;-1.510;2023-10-13T01:22:34;3.83;;;3.25;;
21987;SDS011;11158;53.404;-1.510;2023-10-13T01:25:19;2.30;;;1.88;;
21987;SDS011;11158;53.404;-1.510;2023-10-13T01:28:04;4.30;;;3.72;;
21987;SDS011;11158;53.404;-1.510;2023-10-13T01:30:53;11.00;;;8.00;;
21987;SDS011;11158;53.404;-1.510;2023-10-13T01:33:37;12.10;;;8.95;;
21987;SDS011;11158;53.404;-1.510;2023-10-13T01:36:21;11.05;;;9.80;;
21987;SDS011;11158;53.404;-1.510;2023-10-13T01:39:09;17.73;;;12.20;;
21987;SDS011;11158;53.404;-1.510;2023-10-13T01:41:55;16.33;;;12.57;;
21987;SDS011;11158;53.404;-1.510;2023-10-13T01:44:39;15.35;;;12.38;;
21987;SDS011;11158;53.404;-1.510;2023-10-13T01:47:23;18.80;;;12.00;;
21987;SDS011;11158;53.404;-1.510;2023-10-13T01:50:07;13.43;;;10.95;;
21987;SDS011;11158;53.404;-1.510;2023-10-13T01:53:10;18.17;;;12.75;;
21987;SDS011;11158;53.404;-1.510;2023-10-13T01:56:01;15.45;;;11.20;;
21987;SDS011;11158;53.404;-1.510;2023-10-13T01:58:49;15.05;;;11.93;;
21987;SDS011;11158;53.404;-1.510;2023-10-13T02:01:33;11.60;;;9.98;;
21987;SDS011;11158;53.404;-1.510;2023-10-13T02:04:18;13.98;;;10.23;;
21987;SDS011;11158;53.404;-1.510;2023-10-13T02:07:04;11.52;;;8.98;;
21987;SDS011;11158;53.404;-1.510;2023-10-13T02:09:52;11.90;;;9.27;;
21987;SDS011;11158;53.404;-1.510;2023-10-13T02:12:39;13.18;;;8.50;;
21987;SDS011;11158;53.404;-1.510;2023-10-13T02:15:26;9.90;;;8.45;;
21987;SDS011;11158;53.404;-1.510;2023-10-13T02:18:19;9.45;;;7.53;;
21987;SDS011;11158;53.404;-1.510;2023-10-13T02:21:17;10.48;;;7.90;;
21987;SDS011;11158;53.404;-1.510;2023-10-13T02:24:01;9.07;;;7.03;;
21987;SDS011;11158;53.404;-1.510;2023-10-13T02:26:48;9.68;;;7.20;;
21987;SDS011;11158;53.404;-1.510;2023-10-13T02:29:32;10.25;;;7.68;;
21987;SDS011;11158;53.404;-1.510;2023-10-13T02:32:23;7.97;;;6.78;;
21987;SDS011;11158;53.404;-1.510;2023-10-13T02:35:07;7.93;;;6.80;;
21987;SDS011;11158;53.404;-1.510;2023-10-13T02:37:58;8.55;;;6.30;;
21987;SDS011;11158;53.404;-1.510;2023-10-13T02:40:51;10.65;;;7.57;;
21987;SDS011;11158;53.404;-1.510;2023-10-13T02:43:37;8.32;;;6.72;;
21987;SDS011;11158;53.404;-1.510;2023-10-13T02:46:22;7.63;;;6.40;;
21987;SDS011;11158;53.404;-1.510;2023-10-13T02:49:06;10.60;;;7.30;;
21987;SDS011;11158;53.404;-1.510;2023-10-13T02:51:54;8.15;;;6.15;;
21987;SDS011;11158;53.404;-1.510;2023-10-13T02:54:40;8.15;;;6.03;;
21987;SDS011;11158;53.404;-1.510;2023-10-13T02:57:30;8.48;;;6.72;;
21987;SDS011;11158;53.404;-1.510;2023-10-13T03:00:17;8.93;;;6.90;;
21987;SDS011;11158;53.404;-1.510;2023-10-13T03:03:07;9.10;;;6.70;;
21987;SDS011;11158;53.404;-1.510;2023-10-13T03:05:51;9.48;;;7.25;;
21987;SDS011;11158;53.404;-1.510;2023-10-13T03:08:35;10.55;;;7.32;;
21987;SDS011;11158;53.404;-1.510;2023-10-13T03:11:20;10.85;;;6.85;;
21987;SDS011;11158;53.404;-1.510;2023-10-13T03:14:05;14.93;;;8.07;;
21987;SDS011;11158;53.404;-1.510;2023-10-13T03:16:51;10.07;;;7.20;;
21987;SDS011;11158;53.404;-1.510;2023-10-13T03:19:35;9.23;;;6.88;;
21987;SDS011;11158;53.404;-1.510;2023-10-13T03:22:23;8.13;;;6.93;;
21987;SDS011;11158;53.404;-1.510;2023-10-13T03:25:14;12.02;;;6.72;;
21987;SDS011;11158;53.404;-1.510;2023-10-13T03:28:07;8.95;;;6.13;;
21987;SDS011;11158;53.404;-1.510;2023-10-13T03:30:55;7.60;;;6.22;;
21987;SDS011;11158;53.404;-1.510;2023-10-13T03:33:44;8.68;;;6.10;;
21987;SDS011;11158;53.404;-1.510;2023-10-13T03:36:30;6.70;;;5.55;;
21987;SDS011;11158;53.404;-1.510;2023-10-13T03:39:33;7.20;;;5.55;;
21987;SDS011;11158;53.404;-1.510;2023-10-13T03:42:17;6.32;;;5.10;;
21987;SDS011;11158;53.404;-1.510;2023-10-13T03:45:05;6.03;;;5.10;;
21987;SDS011;11158;53.404;-1.510;2023-10-13T03:47:54;8.05;;;5.30;;
21987;SDS011;11158;53.404;-1.510;2023-10-13T03:50:38;7.90;;;5.90;;
21987;SDS011;11158;53.404;-1.510;2023-10-13T03:53:31;7.03;;;5.28;;
21987;SDS011;11158;53.404;-1.510;2023-10-13T03:56:20;9.43;;;6.00;;
21987;SDS011;11158;53.404;-1.510;2023-10-13T03:59:31;6.07;;;5.00;;
21987;SDS011;11158;53.404;-1.510;2023-10-13T04:02:19;9.00;;;5.53;;
21987;SDS011;11158;53.404;-1.510;2023-10-13T04:05:05;7.82;;;5.35;;
21987;SDS011;11158;53.404;-1.510;2023-10-13T04:07:53;7.45;;;5.20;;
21987;SDS011;11158;53.404;-1.510;2023-10-13T04:11:00;8.30;;;5.30;;
21987;SDS011;11158;53.404;-1.510;2023-10-13T04:13:44;8.48;;;5.70;;
21987;SDS011;11158;53.404;-1.510;2023-10-13T04:16:47;6.80;;;4.65;;
21987;SDS011;11158;53.404;-1.510;2023-10-13T04:19:38;7.63;;;4.45;;
21987;SDS011;11158;53.404;-1.510;2023-10-13T04:22:42;7.40;;;5.28;;
21987;SDS011;11158;53.404;-1.510;2023-10-13T04:25:30;6.25;;;4.90;;
21987;SDS011;11158;53.404;-1.510;2023-10-13T04:28:26;6.28;;;4.53;;
21987;SDS011;11158;53.404;-1.510;2023-10-13T04:31:10;5.65;;;4.32;;
21987;SDS011;11158;53.404;-1.510;2023-10-13T04:34:08;5.35;;;4.20;;
21987;SDS011;11158;53.404;-1.510;2023-10-13T04:37:01;5.88;;;4.20;;
21987;SDS011;11158;53.404;-1.510;2023-10-13T04:40:14;4.68;;;4.07;;
21987;SDS011;11158;53.404;-1.510;2023-10-13T04:43:01;6.13;;;4.40;;
21987;SDS011;11158;53.404;-1.510;2023-10-13T04:45:48;4.78;;;3.90;;
21987;SDS011;11158;53.404;-1.510;2023-10-13T04:48:38;5.88;;;4.60;;
21987;SDS011;11158;53.404;-1.510;2023-10-13T04:51:23;5.53;;;4.13;;
21987;SDS011;11158;53.404;-1.510;2023-10-13T04:54:28;5.25;;;4.15;;
21987;SDS011;11158;53.404;-1.510;2023-10-13T04:57:31;5.60;;;4.15;;
21987;SDS011;11158;53.404;-1.510;2023-10-13T05:00:15;6.15;;;4.07;;
21987;SDS011;11158;53.404;-1.510;2023-10-13T05:03:05;4.40;;;4.00;;
21987;SDS011;11158;53.404;-1.510;2023-10-13T05:06:15;5.13;;;4.63;;
21987;SDS011;11158;53.404;-1.510;2023-10-13T05:09:18;5.53;;;3.88;;
21987;SDS011;11158;53.404;-1.510;2023-10-13T05:12:25;5.18;;;3.75;;
21987;SDS011;11158;53.404;-1.510;2023-10-13T05:15:28;4.63;;;4.13;;
21987;SDS011;11158;53.404;-1.510;2023-10-13T05:18:31;4.47;;;4.07;;
21987;SDS011;11158;53.404;-1.510;2023-10-13T05:21:33;4.75;;;3.67;;
21987;SDS011;11158;53.404;-1.510;2023-10-13T05:24:36;4.38;;;3.85;;
21987;SDS011;11158;53.404;-1.510;2023-10-13T05:27:40;4.20;;;3.67;;
21987;SDS011;11158;53.404;-1.510;2023-10-13T05:30:43;7.28;;;4.07;;
21987;SDS011;11158;53.404;-1.510;2023-10-13T05:33:46;4.45;;;3.78;;
21987;SDS011;11158;53.404;-1.510;2023-10-13T05:36:49;4.25;;;3.85;;
21987;SDS011;11158;53.404;-1.510;2023-10-13T05:39:52;5.45;;;4.25;;
21987;SDS011;11158;53.404;-1.510;2023-10-13T05:42:54;5.18;;;4.50;;
21987;SDS011;11158;53.404;-1.510;2023-10-13T05:46:01;4.22;;;3.70;;
21987;SDS011;11158;53.404;-1.510;2023-10-13T05:49:06;4.55;;;3.75;;
21987;SDS011;11158;53.404;-1.510;2023-10-13T05:51:55;8.93;;;3.80;;
21987;SDS011;11158;53.404;-1.510;2023-10-13T05:54:50;4.25;;;3.28;;
21987;SDS011;11158;53.404;-1.510;2023-10-13T05:58:07;4.07;;;3.63;;
21987;SDS011;11158;53.404;-1.510;2023-10-13T06:01:12;5.57;;;3.45;;
21987;SDS011;11158;53.404;-1.510;2023-10-13T06:04:15;4.07;;;3.38;;
21987;SDS011;11158;53.404;-1.510;2023-10-13T06:07:18;4.32;;;3.67;;
21987;SDS011;11158;53.404;-1.510;2023-10-13T06:10:21;4.63;;;3.63;;
21987;SDS011;11158;53.404;-1.510;2023-10-13T06:13:23;4.72;;;3.45;;
21987;SDS011;11158;53.404;-1.510;2023-10-13T06:16:26;4.38;;;3.30;;
21987;SDS011;11158;53.404;-1.510;2023-10-13T06:19:29;4.63;;;3.65;;
21987;SDS011;11158;53.404;-1.510;2023-10-13T06:22:32;4.68;;;3.65;;
21987;SDS011;11158;53.404;-1.510;2023-10-13T06:25:35;6.70;;;4.38;;
21987;SDS011;11158;53.404;-1.510;2023-10-13T06:28:38;7.07;;;4.50;;
21987;SDS011;11158;53.404;-1.510;2023-10-13T06:31:25;5.75;;;4.38;;
21987;SDS011;11158;53.404;-1.510;2023-10-13T06:34:09;5.60;;;3.85;;
21987;SDS011;11158;53.404;-1.510;2023-10-13T06:36:53;5.50;;;4.20;;
21987;SDS011;11158;53.404;-1.510;2023-10-13T06:39:38;5.93;;;4.15;;
21987;SDS011;11158;53.404;-1.510;2023-10-13T06:42:22;4.18;;;3.63;;
21987;SDS011;11158;53.404;-1.510;2023-10-13T06:45:10;4.90;;;4.30;;
21987;SDS011;11158;53.404;-1.510;2023-10-13T06:48:00;4.30;;;3.90;;
21987;SDS011;11158;53.404;-1.510;2023-10-13T06:50:48;6.07;;;4.32;;
21987;SDS011;11158;53.404;-1.510;2023-10-13T06:53:33;5.22;;;4.03;;
21987;SDS011;11158;53.404;-1.510;2023-10-13T06:56:21;4.25;;;3.45;;
21987;SDS011;11158;53.404;-1.510;2023-10-13T06:59:06;5.55;;;3.70;;
21987;SDS011;11158;53.404;-1.510;2023-10-13T07:01:50;9.02;;;4.70;;
21987;SDS011;11158;53.404;-1.510;2023-10-13T07:04:35;5.97;;;3.85;;
21987;SDS011;11158;53.404;-1.510;2023-10-13T07:07:26;6.97;;;4.07;;
21987;SDS011;11158;53.404;-1.510;2023-10-13T07:10:10;6.05;;;3.90;;
21987;SDS011;11158;53.404;-1.510;2023-10-13T07:12:58;7.07;;;4.30;;
21987;SDS011;11158;53.404;-1.510;2023-10-13T07:15:44;6.47;;;4.22;;
21987;SDS011;11158;53.404;-1.510;2023-10-13T07:18:31;6.85;;;5.35;;
21987;SDS011;11158;53.404;-1.510;2023-10-13T07:21:19;5.03;;;3.90;;
21987;SDS011;11158;53.404;-1.510;2023-10-13T07:24:14;6.18;;;4.00;;
21987;SDS011;11158;53.404;-1.510;2023-10-13T07:26:59;5.35;;;3.90;;
21987;SDS011;11158;53.404;-1.510;2023-10-13T07:29:53;5.53;;;3.45;;
21987;SDS011;11158;53.404;-1.510;2023-10-13T07:33:05;9.20;;;4.43;;
21987;SDS011;11158;53.404;-1.510;2023-10-13T07:36:02;8.70;;;4.43;;
21987;SDS011;11158;53.404;-1.510;2023-10-13T07:38:59;4.50;;;3.20;;
21987;SDS011;11158;53.404;-1.510;2023-10-13T07:42:03;5.55;;;3.35;;
21987;SDS011;11158;53.404;-1.510;2023-10-13T07:44:47;4.40;;;2.75;;
21987;SDS011;11158;53.404;-1.510;2023-10-13T07:47:31;2.80;;;1.70;;
21987;SDS011;11158;53.404;-1.510;2023-10-13T07:50:18;1.95;;;1.50;;
21987;SDS011;11158;53.404;-1.510;2023-10-13T07:53:08;1.73;;;1.27;;
21987;SDS011;11158;53.404;-1.510;2023-10-13T07:56:08;1.38;;;0.90;;
21987;SDS011;11158;53.404;-1.510;2023-10-13T07:58:52;2.85;;;1.05;;
21987;SDS011;11158;53.404;-1.510;2023-10-13T08:01:45;1.27;;;0.77;;
21987;SDS011;11158;53.404;-1.510;2023-10-13T08:04:30;1.65;;;0.95;;
21987;SDS011;11158;53.404;-1.510;2023-10-13T08:07:14;1.48;;;1.02;;
21987;SDS011;11158;53.404;-1.510;2023-10-13T08:09:59;1.23;;;0.82;;
21987;SDS011;11158;53.404;-1.510;2023-10-13T08:12:45;0.80;;;0.80;;
21987;SDS011;11158;53.404;-1.510;2023-10-13T08:15:29;1.10;;;0.80;;
21987;SDS011;11158;53.404;-1.510;2023-10-13T08:18:16;1.20;;;0.70;;
21987;SDS011;11158;53.404;-1.510;2023-10-13T08:21:16;1.02;;;0.82;;
21987;SDS011;11158;53.404;-1.510;2023-10-13T08:24:06;0.95;;;0.80;;
21987;SDS011;11158;53.404;-1.510;2023-10-13T08:26:51;1.45;;;0.90;;
21987;SDS011;11158;53.404;-1.510;2023-10-13T08:30:01;1.00;;;0.80;;
21987;SDS011;11158;53.404;-1.510;2023-10-13T08:32:47;0.57;;;0.57;;
21987;SDS011;11158;53.404;-1.510;2023-10-13T08:35:47;1.25;;;0.38;;
21987;SDS011;11158;53.404;-1.510;2023-10-13T08:38:50;3.00;;;0.50;;
21987;SDS011;11158;53.404;-1.510;2023-10-13T08:41:34;2.90;;;0.45;;
21987;SDS011;11158;53.404;-1.510;2023-10-13T08:44:39;0.63;;;0.40;;
21987;SDS011;11158;53.404;-1.510;2023-10-13T08:47:36;0.47;;;0.47;;
21987;SDS011;11158;53.404;-1.510;2023-10-13T08:50:21;0.30;;;0.30;;
21987;SDS011;11158;53.404;-1.510;2023-10-13T08:53:32;0.38;;;0.38;;
21987;SDS011;11158;53.404;-1.510;2023-10-13T08:56:31;0.40;;;0.40;;
21987;SDS011;11158;53.404;-1.510;2023-10-13T08:59:19;1.80;;;0.30;;
21987;SDS011;11158;53.404;-1.510;2023-10-13T09:02:15;0.40;;;0.40;;
21987;SDS011;11158;53.404;-1.510;2023-10-13T09:05:01;0.93;;;0.70;;
21987;SDS011;11158;53.404;-1.510;2023-10-13T09:07:53;1.73;;;0.80;;
21987;SDS011;11158;53.404;-1.510;2023-10-13T09:10:39;1.95;;;0.80;;
21987;SDS011;11158;53.404;-1.510;2023-10-13T09:13:49;0.40;;;0.35;;
21987;SDS011;11158;53.404;-1.510;2023-10-13T09:16:36;1.08;;;0.30;;
21987;SDS011;11158;53.404;-1.510;2023-10-13T09:19:23;1.08;;;0.40;;
21987;SDS011;11158;53.404;-1.510;2023-10-13T09:22:07;0.90;;;0.40;;
21987;SDS011;11158;53.404;-1.510;2023-10-13T09:24:51;1.08;;;0.32;;
21987;SDS011;11158;53.404;-1.510;2023-10-13T09:27:37;0.47;;;0.47;;
21987;SDS011;11158;53.404;-1.510;2023-10-13T09:30:21;0.60;;;0.40;;
21987;SDS011;11158;53.404;-1.510;2023-10-13T09:33:07;0.70;;;0.70;;
21987;SDS011;11158;53.404;-1.510;2023-10-13T09:35:52;0.65;;;0.50;;
21987;SDS011;11158;53.404;-1.510;2023-10-13T09:38:37;0.50;;;0.50;;
21987;SDS011;11158;53.404;-1.510;2023-10-13T09:41:24;0.60;;;0.60;;
21987;SDS011;11158;53.404;-1.510;2023-10-13T09:44:11;0.63;;;0.40;;
21987;SDS011;11158;53.404;-1.510;2023-10-13T09:47:00;0.57;;;0.40;;
21987;SDS011;11158;53.404;-1.510;2023-10-13T09:49:51;1.00;;;0.40;;
21987;SDS011;11158;53.404;-1.510;2023-10-13T09:52:42;0.50;;;0.50;;
21987;SDS011;11158;53.404;-1.510;2023-10-13T09:55:30;0.40;;;0.40;;
21987;SDS011;11158;53.404;-1.510;2023-10-13T09:58:18;0.40;;;0.40;;
21987;SDS011;11158;53.404;-1.510;2023-10-13T10:01:11;0.47;;;0.40;;
21987;SDS011;11158;53.404;-1.510;2023-10-13T10:04:07;0.40;;;0.40;;
21987;SDS011;11158;53.404;-1.510;2023-10-13T10:06:55;0.50;;;0.50;;
21987;SDS011;11158;53.404;-1.510;2023-10-13T10:09:40;0.55;;;0.55;;
21987;SDS011;11158;53.404;-1.510;2023-10-13T10:15:34;0.65;;;0.65;;
21987;SDS011;11158;53.404;-1.510;2023-10-13T10:18:27;0.80;;;0.80;;
21987;SDS011;11158;53.404;-1.510;2023-10-13T10:21:11;1.30;;;0.52;;
21987;SDS011;11158;53.404;-1.510;2023-10-13T10:23:56;0.60;;;0.60;;
21987;SDS011;11158;53.404;-1.510;2023-10-13T10:26:50;0.40;;;0.40;;
21987;SDS011;11158;53.404;-1.510;2023-10-13T10:29:38;0.40;;;0.40;;
21987;SDS011;11158;53.404;-1.510;2023-10-13T10:32:37;0.40;;;0.17;;
21987;SDS011;11158;53.404;-1.510;2023-10-13T10:35:26;2.25;;;0.50;;
21987;SDS011;11158;53.404;-1.510;2023-10-13T10:38:17;0.73;;;0.30;;
21987;SDS011;11158;53.404;-1.510;2023-10-13T10:41:08;0.38;;;0.30;;
21987;SDS011;11158;53.404;-1.510;2023-10-13T10:43:57;1.17;;;0.22;;
21987;SDS011;11158;53.404;-1.510;2023-10-13T10:46:46;0.10;;;0.10;;
21987;SDS011;11158;53.404;-1.510;2023-10-13T10:49:40;0.25;;;0.20;;
21987;SDS011;11158;53.404;-1.510;2023-10-13T10:52:27;0.10;;;0.10;;
21987;SDS011;11158;53.404;-1.510;2023-10-13T10:55:20;0.20;;;0.10;;
21987;SDS011;11158;53.404;-1.510;2023-10-13T10:58:06;0.10;;;0.10;;
21987;SDS011;11158;53.404;-1.510;2023-10-13T11:00:50;0.32;;;0.28;;
21987;SDS011;11158;53.404;-1.510;2023-10-13T11:04:01;0.30;;;0.20;;
21987;SDS011;11158;53.404;-1.510;2023-10-13T11:07:03;0.10;;;0.10;;
21987;SDS011;11158;53.404;-1.510;2023-10-13T11:09:47;0.10;;;0.10;;
21987;SDS011;11158;53.404;-1.510;2023-10-13T11:12:31;1.02;;;0.93;;
21987;SDS011;11158;53.404;-1.510;2023-10-13T11:15:18;0.30;;;0.30;;
21987;SDS011;11158;53.404;-1.510;2023-10-13T11:18:17;1.40;;;0.90;;
21987;SDS011;11158;53.404;-1.510;2023-10-13T11:21:07;0.30;;;0.30;;
21987;SDS011;11158;53.404;-1.510;2023-10-13T11:23:57;1.65;;;1.27;;
21987;SDS011;11158;53.404;-1.510;2023-10-13T11:26:47;2.95;;;2.28;;
21987;SDS011;11158;53.404;-1.510;2023-10-13T11:29:38;1.70;;;1.10;;
21987;SDS011;11158;53.404;-1.510;2023-10-13T11:32:23;0.30;;;0.30;;
21987;SDS011;11158;53.404;-1.510;2023-10-13T11:35:10;0.10;;;0.10;;
21987;SDS011;11158;53.404;-1.510;2023-10-13T11:38:12;0.40;;;0.15;;
21987;SDS011;11158;53.404;-1.510;2023-10-13T11:40:59;0.28;;;0.28;;
21987;SDS011;11158;53.404;-1.510;2023-10-13T11:43:52;0.25;;;0.25;;
21987;SDS011;11158;53.404;-1.510;2023-10-13T11:46:41;0.40;;;0.20;;
21987;SDS011;11158;53.404;-1.510;2023-10-13T11:49:28;0.47;;;0.30;;
21987;SDS011;11158;53.404;-1.510;2023-10-13T11:52:12;0.30;;;0.30;;
21987;SDS011;11158;53.404;-1.510;2023-10-13T11:55:02;0.45;;;0.30;;
21987;SDS011;11158;53.404;-1.510;2023-10-13T11:57:47;0.30;;;0.30;;
21987;SDS011;11158;53.404;-1.510;2023-10-13T12:00:31;0.50;;;0.50;;
21987;SDS011;11158;53.404;-1.510;2023-10-13T12:03:35;2.30;;;0.60;;
21987;SDS011;11158;53.404;-1.510;2023-10-13T12:06:37;0.50;;;0.50;;
21987;SDS011;11158;53.404;-1.510;2023-10-13T12:09:21;0.40;;;0.40;;
21987;SDS011;11158;53.404;-1.510;2023-10-13T12:12:08;2.78;;;0.30;;
21987;SDS011;11158;53.404;-1.510;2023-10-13T12:14:53;0.90;;;0.30;;
21987;SDS011;11158;53.404;-1.510;2023-10-13T12:17:41;0.20;;;0.20;;
21987;SDS011;11158;53.404;-1.510;2023-10-13T12:20:28;0.35;;;0.30;;
21987;SDS011;11158;53.404;-1.510;2023-10-13T12:23:19;0.28;;;0.28;;
21987;SDS011;11158;53.404;-1.510;2023-10-13T12:26:15;1.88;;;0.40;;
21987;SDS011;11158;53.404;-1.510;2023-10-13T12:29:16;0.68;;;0.20;;
21987;SDS011;11158;53.404;-1.510;2023-10-13T12:32:06;0.35;;;0.30;;
21987;SDS011;11158;53.404;-1.510;2023-10-13T12:34:56;0.30;;;0.30;;
21987;SDS011;11158;53.404;-1.510;2023-10-13T12:37:43;0.52;;;0.30;;
21987;SDS011;11158;53.404;-1.510;2023-10-13T12:40:27;0.50;;;0.20;;
21987;SDS011;11158;53.404;-1.510;2023-10-13T12:43:30;0.45;;;0.10;;
21987;SDS011;11158;53.404;-1.510;2023-10-13T12:46:33;0.60;;;0.30;;
21987;SDS011;11158;53.404;-1.510;2023-10-13T12:49:36;0.50;;;0.20;;
21987;SDS011;11158;53.404;-1.510;2023-10-13T12:52:27;0.10;;;0.10;;
21987;SDS011;11158;53.404;-1.510;2023-10-13T12:55:15;1.08;;;0.30;;
21987;SDS011;11158;53.404;-1.510;2023-10-13T12:58:03;0.75;;;0.20;;
21987;SDS011;11158;53.404;-1.510;2023-10-13T13:00:48;0.55;;;0.40;;
21987;SDS011;11158;53.404;-1.510;2023-10-13T13:03:32;0.65;;;0.30;;
21987;SDS011;11158;53.404;-1.510;2023-10-13T13:09:08;1.25;;;0.60;;
21987;SDS011;11158;53.404;-1.510;2023-10-13T13:11:53;2.42;;;0.68;;
21987;SDS011;11158;53.404;-1.510;2023-10-13T13:14:40;0.70;;;0.40;;
21987;SDS011;11158;53.404;-1.510;2023-10-13T13:17:29;1.17;;;0.43;;
21987;SDS011;11158;53.404;-1.510;2023-10-13T13:20:13;1.55;;;0.40;;
21987;SDS011;11158;53.404;-1.510;2023-10-13T13:23:11;2.05;;;0.43;;
21987;SDS011;11158;53.404;-1.510;2023-10-13T13:25:56;1.58;;;0.43;;
21987;SDS011;11158;53.404;-1.510;2023-10-13T13:28:47;0.43;;;0.32;;
21987;SDS011;11158;53.404;-1.510;2023-10-13T13:31:35;1.00;;;0.40;;
21987;SDS011;11158;53.404;-1.510;2023-10-13T13:34:25;1.23;;;0.45;;
21987;SDS011;11158;53.404;-1.510;2023-10-13T13:37:10;0.70;;;0.50;;
21987;SDS011;11158;53.404;-1.510;2023-10-13T13:39:56;4.15;;;0.50;;
21987;SDS011;11158;53.404;-1.510;2023-10-13T13:42:46;1.58;;;0.82;;
21987;SDS011;11158;53.404;-1.510;2023-10-13T13:45:30;3.35;;;0.60;;
21987;SDS011;11158;53.404;-1.510;2023-10-13T13:48:15;1.98;;;0.50;;
21987;SDS011;11158;53.404;-1.510;2023-10-13T13:51:03;3.28;;;0.63;;
21987;SDS011;11158;53.404;-1.510;2023-10-13T13:53:49;1.73;;;0.55;;
21987;SDS011;11158;53.404;-1.510;2023-10-13T13:56:33;1.75;;;0.70;;
21987;SDS011;11158;53.404;-1.510;2023-10-13T13:59:22;3.70;;;1.20;;
21987;SDS011;11158;53.404;-1.510;2023-10-13T14:02:06;3.05;;;0.60;;
21987;SDS011;11158;53.404;-1.510;2023-10-13T14:05:04;2.85;;;0.85;;
21987;SDS011;11158;53.404;-1.510;2023-10-13T14:07:48;2.85;;;0.80;;
21987;SDS011;11158;53.404;-1.510;2023-10-13T14:10:33;1.92;;;0.70;;
21987;SDS011;11158;53.404;-1.510;2023-10-13T14:13:37;3.28;;;0.82;;
21987;SDS011;11158;53.404;-1.510;2023-10-13T14:16:34;3.67;;;0.60;;
21987;SDS011;11158;53.404;-1.510;2023-10-13T14:19:23;2.70;;;0.93;;
21987;SDS011;11158;53.404;-1.510;2023-10-13T14:22:10;5.88;;;0.77;;
21987;SDS011;11158;53.404;-1.510;2023-10-13T14:24:56;1.58;;;0.80;;
21987;SDS011;11158;53.404;-1.510;2023-10-13T14:27:43;3.95;;;1.02;;
21987;SDS011;11158;53.404;-1.510;2023-10-13T14:30:27;4.35;;;0.90;;
21987;SDS011;11158;53.404;-1.510;2023-10-13T14:33:14;4.35;;;0.90;;
21987;SDS011;11158;53.404;-1.510;2023-10-13T14:35:58;2.75;;;1.17;;
21987;SDS011;11158;53.404;-1.510;2023-10-13T14:38:43;4.50;;;1.10;;
21987;SDS011;11158;53.404;-1.510;2023-10-13T14:41:27;7.65;;;1.73;;
21987;SDS011;11158;53.404;-1.510;2023-10-13T14:44:13;6.35;;;1.50;;
21987;SDS011;11158;53.404;-1.510;2023-10-13T14:46:57;8.05;;;1.45;;
21987;SDS011;11158;53.404;-1.510;2023-10-13T14:49:42;8.45;;;2.05;;
21987;SDS011;11158;53.404;-1.510;2023-10-13T14:52:26;5.10;;;1.13;;
21987;SDS011;11158;53.404;-1.510;2023-10-13T14:55:10;4.45;;;1.55;;
21987;SDS011;11158;53.404;-1.510;2023-10-13T14:58:03;9.32;;;3.65;;
21987;SDS011;11158;53.404;-1.510;2023-10-13T15:00:59;3.25;;;1.25;;
21987;SDS011;11158;53.404;-1.510;2023-10-13T15:03:45;5.80;;;1.77;;
21987;SDS011;11158;53.404;-1.510;2023-10-13T15:06:33;4.97;;;1.05;;
21987;SDS011;11158;53.404;-1.510;2023-10-13T15:09:17;10.13;;;1.38;;
21987;SDS011;11158;53.404;-1.510;2023-10-13T15:12:07;3.78;;;1.33;;
21987;SDS011;11158;53.404;-1.510;2023-10-13T15:14:55;8.88;;;1.25;;
21987;SDS011;11158;53.404;-1.510;2023-10-13T15:17:40;7.50;;;1.23;;
21987;SDS011;11158;53.404;-1.510;2023-10-13T15:20:24;3.88;;;1.35;;
21987;SDS011;11158;53.404;-1.510;2023-10-13T15:23:08;5.05;;;1.70;;
21987;SDS011;11158;53.404;-1.510;2023-10-13T15:26:03;10.65;;;1.75;;
21987;SDS011;11158;53.404;-1.510;2023-10-13T15:28:53;9.20;;;2.60;;
21987;SDS011;11158;53.404;-1.510;2023-10-13T15:31:39;7.60;;;1.50;;
21987;SDS011;11158;53.404;-1.510;2023-10-13T15:34:25;9.48;;;2.08;;
21987;SDS011;11158;53.404;-1.510;2023-10-13T15:37:10;5.38;;;1.60;;
21987;SDS011;11158;53.404;-1.510;2023-10-13T15:39:56;6.78;;;1.83;;
21987;SDS011;11158;53.404;-1.510;2023-10-13T15:42:42;6.60;;;1.88;;
21987;SDS011;11158;53.404;-1.510;2023-10-13T15:45:30;9.43;;;1.80;;
21987;SDS011;11158;53.404;-1.510;2023-10-13T15:48:22;6.03;;;1.75;;
21987;SDS011;11158;53.404;-1.510;2023-10-13T15:51:10;9.82;;;2.22;;
21987;SDS011;11158;53.404;-1.510;2023-10-13T15:53:56;9.00;;;2.42;;
21987;SDS011;11158;53.404;-1.510;2023-10-13T15:56:43;10.85;;;2.08;;
21987;SDS011;11158;53.404;-1.510;2023-10-13T15:59:28;7.50;;;1.98;;
21987;SDS011;11158;53.404;-1.510;2023-10-13T16:02:13;7.82;;;2.00;;
21987;SDS011;11158;53.404;-1.510;2023-10-13T16:05:00;6.45;;;1.65;;
21987;SDS011;11158;53.404;-1.510;2023-10-13T16:07:44;5.10;;;2.17;;
21987;SDS011;11158;53.404;-1.510;2023-10-13T16:10:29;9.20;;;1.40;;
21987;SDS011;11158;53.404;-1.510;2023-10-13T16:13:13;10.65;;;2.25;;
21987;SDS011;11158;53.404;-1.510;2023-10-13T16:16:00;5.30;;;1.40;;
21987;SDS011;11158;53.404;-1.510;2023-10-13T16:18:48;8.68;;;1.90;;
21987;SDS011;11158;53.404;-1.510;2023-10-13T16:21:35;12.50;;;2.03;;
21987;SDS011;11158;53.404;-1.510;2023-10-13T16:24:23;6.20;;;1.83;;
21987;SDS011;11158;53.404;-1.510;2023-10-13T16:27:07;10.43;;;1.98;;
21987;SDS011;11158;53.404;-1.510;2023-10-13T16:29:51;5.63;;;1.85;;
21987;SDS011;11158;53.404;-1.510;2023-10-13T16:32:38;7.63;;;1.88;;
21987;SDS011;11158;53.404;-1.510;2023-10-13T16:35:23;12.35;;;1.83;;
21987;SDS011;11158;53.404;-1.510;2023-10-13T16:38:07;13.73;;;4.10;;
21987;SDS011;11158;53.404;-1.510;2023-10-13T16:40:52;5.65;;;1.77;;
21987;SDS011;11158;53.404;-1.510;2023-10-13T16:43:40;7.85;;;1.63;;
21987;SDS011;11158;53.404;-1.510;2023-10-13T16:46:25;7.43;;;1.98;;
21987;SDS011;11158;53.404;-1.510;2023-10-13T16:49:10;9.25;;;2.42;;
21987;SDS011;11158;53.404;-1.510;2023-10-13T16:51:55;7.45;;;2.15;;
21987;SDS011;11158;53.404;-1.510;2023-10-13T16:54:38;6.65;;;1.80;;